Time;durP1;ratioP1;P1;durP2;ratioP2;P2;SDS_P1;SDS_P2;PMS_P1;PMS_P2;Temp;Humidity;BMP_temperature;BMP_pressure;BME280_temperature;BME280_humidity;BME280_pressure;Samples;Min_cycle;Max_cycle;Signal;HPM_P1;HPM_P2
2021/07/22 00:00:22;;;;;;;9.50;6.15;;;18.40;1.00;;;;;;5081469;28;20056;-69
2021/07/22 00:03:10;;;;;;;10.52;6.55;;;18.40;1.00;;;;;;5081166;28;20316;-69
2021/07/22 00:06:01;;;;;;;9.13;5.93;;;18.30;1.00;;;;;;5074774;28;20534;-69
2021/07/22 00:08:50;;;;;;;8.18;5.75;;;18.30;1.00;;;;;;5076593;28;20147;-69
2021/07/22 00:11:43;;;;;;;8.27;6.35;;;18.40;1.00;;;;;;5079931;28;20507;-69
2021/07/22 00:14:32;;;;;;;11.18;6.53;;;18.40;1.00;;;;;;5080730;28;20044;-70
2021/07/22 00:17:20;;;;;;;15.15;6.47;;;18.40;1.00;;;;;;5076185;28;20052;-70
2021/07/22 00:20:11;;;;;;;14.15;7.35;;;18.30;1.00;;;;;;5076292;28;20161;-70
2021/07/22 00:22:59;;;;;;;13.27;7.05;;;18.30;1.00;;;;;;5061435;28;20040;-70
2021/07/22 00:25:49;;;;;;;11.07;6.90;;;18.30;1.00;;;;;;5079478;28;20087;-69
2021/07/22 00:28:39;;;;;;;10.43;7.07;;;18.20;1.00;;;;;;5080010;28;20040;-69
2021/07/22 00:31:28;;;;;;;16.95;7.05;;;18.20;1.00;;;;;;5079597;28;20080;-69
2021/07/22 00:34:16;;;;;;;12.65;7.53;;;18.10;1.00;;;;;;5078059;28;20052;-69
2021/07/22 00:37:05;;;;;;;12.57;6.35;;;18.00;1.00;;;;;;5059765;28;20052;-69
2021/07/22 00:39:54;;;;;;;10.95;6.55;;;18.00;1.00;;;;;;5081899;28;20118;-69
2021/07/22 00:43:01;;;;;;;10.80;6.47;;;18.00;1.00;;;;;;5064812;28;20051;-69
2021/07/22 00:45:50;;;;;;;8.77;6.43;;;18.00;1.00;;;;;;5058237;28;20059;-70
2021/07/22 00:48:39;;;;;;;10.85;6.72;;;17.90;1.00;;;;;;5075830;28;20058;-69
2021/07/22 00:51:28;;;;;;;9.85;6.30;;;17.90;1.00;;;;;;5082020;28;20048;-69
2021/07/22 00:54:17;;;;;;;10.05;7.25;;;17.80;1.00;;;;;;5083125;28;20056;-70
2021/07/22 00:57:08;;;;;;;11.73;7.10;;;17.70;1.00;;;;;;5064903;28;20414;-70
2021/07/22 00:59:58;;;;;;;10.82;7.38;;;17.60;1.00;;;;;;5081864;28;20055;-69
2021/07/22 01:02:47;;;;;;;10.02;7.10;;;17.60;1.00;;;;;;5064328;28;20040;-70
2021/07/22 01:05:39;;;;;;;12.00;6.80;;;17.60;1.00;;;;;;5079828;28;20131;-70
2021/07/22 01:08:27;;;;;;;11.35;7.25;;;17.60;1.00;;;;;;5067766;28;20048;-70
2021/07/22 01:11:35;;;;;;;10.70;6.47;;;17.60;1.00;;;;;;5066384;28;20075;-70
2021/07/22 01:14:24;;;;;;;13.02;7.05;;;17.50;1.00;;;;;;5080241;28;20043;-70
2021/07/22 01:17:22;;;;;;;13.98;6.95;;;17.60;1.00;;;;;;5065591;28;20048;-69
2021/07/22 01:20:15;;;;;;;12.80;7.03;;;17.60;1.00;;;;;;5082428;28;20048;-70
2021/07/22 01:23:04;;;;;;;14.75;7.57;;;17.50;1.00;;;;;;5069402;28;20582;-71
2021/07/22 01:26:21;;;;;;;11.73;6.75;;;17.40;1.00;;;;;;5078049;28;20127;-69
2021/07/22 01:29:12;;;;;;;10.95;6.68;;;17.40;1.00;;;;;;5049966;28;20044;-70
2021/07/22 01:32:04;;;;;;;16.23;7.32;;;17.30;1.30;;;;;;5077493;28;20044;-70
2021/07/22 01:34:53;;;;;;;10.75;7.57;;;17.20;1.40;;;;;;5073111;28;20048;-70
2021/07/22 01:37:49;;;;;;;15.80;7.25;;;17.20;2.10;;;;;;5073625;28;20047;-69
2021/07/22 01:40:38;;;;;;;12.85;7.30;;;17.10;2.30;;;;;;5076612;28;20039;-70
2021/07/22 01:43:27;;;;;;;12.88;7.18;;;17.10;2.80;;;;;;5072403;28;20130;-70
2021/07/22 01:46:20;;;;;;;11.98;7.50;;;17.10;3.70;;;;;;5078522;28;20063;-71
2021/07/22 01:49:09;;;;;;;11.20;7.45;;;17.10;3.40;;;;;;5061092;28;20058;-70
2021/07/22 01:52:00;;;;;;;10.60;6.72;;;17.10;3.40;;;;;;5074819;28;20384;-70
2021/07/22 01:54:51;;;;;;;11.80;7.95;;;17.00;3.50;;;;;;5072124;28;20044;-71
2021/07/22 01:57:42;;;;;;;13.10;7.20;;;16.90;4.50;;;;;;5070795;28;20384;-71
2021/07/22 02:00:31;;;;;;;10.40;7.10;;;16.90;5.00;;;;;;5069607;28;20044;-71
2021/07/22 02:03:22;;;;;;;12.63;7.43;;;16.80;4.90;;;;;;5069493;28;20131;-71
2021/07/22 02:06:19;;;;;;;10.50;7.30;;;16.80;5.00;;;;;;5080293;28;20571;-70
2021/07/22 02:09:13;;;;;;;10.23;7.27;;;16.70;5.40;;;;;;5070714;28;20044;-70
2021/07/22 02:12:03;;;;;;;10.90;6.95;;;16.80;5.60;;;;;;5063378;28;20251;-71
2021/07/22 02:14:54;;;;;;;13.43;8.80;;;16.80;5.90;;;;;;5067703;28;20183;-70
2021/07/22 02:17:43;;;;;;;11.15;7.80;;;16.70;6.60;;;;;;5083715;28;20055;-70
2021/07/22 02:20:31;;;;;;;15.23;7.95;;;16.60;6.90;;;;;;5068858;28;20047;-70
2021/07/22 02:23:21;;;;;;;13.95;7.20;;;16.50;7.40;;;;;;5067469;28;20044;-70
2021/07/22 02:26:28;;;;;;;12.35;7.78;;;16.60;7.30;;;;;;5075219;28;20044;-70
2021/07/22 02:29:20;;;;;;;12.27;7.85;;;16.60;7.40;;;;;;5081621;28;20050;-71
2021/07/22 02:32:14;;;;;;;12.38;7.82;;;16.60;7.20;;;;;;5083894;28;20044;-71
2021/07/22 02:35:04;;;;;;;12.38;7.75;;;16.50;8.00;;;;;;5066335;28;20073;-71
2021/07/22 02:38:11;;;;;;;16.83;8.60;;;16.50;7.90;;;;;;5075795;28;20048;-71
2021/07/22 02:41:00;;;;;;;11.25;7.40;;;16.50;8.50;;;;;;5075402;28;20898;-70
2021/07/22 02:43:48;;;;;;;11.23;7.63;;;16.40;8.80;;;;;;5077608;28;20450;-70
2021/07/22 02:46:40;;;;;;;13.45;8.18;;;16.30;8.80;;;;;;5064970;28;20125;-70
2021/07/22 02:49:31;;;;;;;12.60;7.65;;;16.40;8.80;;;;;;5054427;28;20487;-71
2021/07/22 02:52:20;;;;;;;16.42;8.00;;;16.30;9.50;;;;;;5064901;28;20109;-70
2021/07/22 02:55:13;;;;;;;13.88;7.32;;;16.30;9.70;;;;;;5062165;28;20526;-70
2021/07/22 02:58:05;;;;;;;10.85;7.43;;;16.30;9.50;;;;;;5069721;28;20052;-70
2021/07/22 03:01:01;;;;;;;10.32;6.85;;;16.30;9.50;;;;;;5066824;28;20036;-72
2021/07/22 03:03:51;;;;;;;13.10;7.32;;;16.20;9.70;;;;;;5079072;28;20059;-71
2021/07/22 03:06:43;;;;;;;11.90;7.43;;;16.10;10.10;;;;;;5060251;28;20044;-71
2021/07/22 03:09:31;;;;;;;13.65;7.43;;;16.10;9.70;;;;;;5077227;28;20118;-70
2021/07/22 03:12:20;;;;;;;10.77;7.03;;;16.00;10.30;;;;;;5064686;28;20055;-71
2021/07/22 03:15:12;;;;;;;11.77;7.25;;;16.00;10.30;;;;;;5079298;28;20130;-71
2021/07/22 03:18:08;;;;;;;8.10;6.90;;;16.00;10.40;;;;;;5064148;28;20039;-70
2021/07/22 03:21:00;;;;;;;10.07;7.00;;;16.00;10.50;;;;;;5064357;28;20120;-70
2021/07/22 03:23:50;;;;;;;11.48;7.65;;;16.10;10.30;;;;;;5065808;28;20054;-70
2021/07/22 03:26:39;;;;;;;10.23;7.32;;;16.00;10.10;;;;;;5075139;28;20142;-70
2021/07/22 03:29:28;;;;;;;9.70;7.18;;;15.90;10.60;;;;;;5054829;28;20048;-69
2021/07/22 03:32:16;;;;;;;10.48;7.18;;;15.90;10.70;;;;;;5065598;28;20582;-70
2021/07/22 03:35:06;;;;;;;11.52;7.65;;;15.90;11.10;;;;;;5061494;28;20052;-70
2021/07/22 03:38:02;;;;;;;13.43;7.97;;;16.10;10.80;;;;;;5063996;28;20046;-70
2021/07/22 03:40:53;;;;;;;10.82;8.20;;;16.10;10.00;;;;;;5067817;28;20047;-71
2021/07/22 03:43:43;;;;;;;9.40;7.30;;;16.00;9.50;;;;;;5067260;28;20415;-69
2021/07/22 03:46:33;;;;;;;10.02;7.50;;;15.90;10.40;;;;;;5062267;28;20047;-70
2021/07/22 03:49:22;;;;;;;11.30;7.32;;;15.90;10.30;;;;;;5064054;28;20052;-70
2021/07/22 03:52:13;;;;;;;12.88;7.72;;;15.90;10.30;;;;;;5080802;28;20125;-69
2021/07/22 03:55:12;;;;;;;12.82;7.82;;;15.90;10.90;;;;;;5051621;28;20413;-69
2021/07/22 03:58:22;;;;;;;11.70;7.57;;;15.90;11.10;;;;;;5083225;28;20515;-71
2021/07/22 04:01:23;;;;;;;13.13;7.72;;;15.90;10.80;;;;;;5064263;28;20048;-70
2021/07/22 04:04:13;;;;;;;10.50;7.05;;;16.00;10.00;;;;;;5061865;28;20044;-70
2021/07/22 04:07:01;;;;;;;12.48;7.82;;;16.30;8.40;;;;;;5060356;28;20076;-70
2021/07/22 04:10:04;;;;;;;14.73;7.60;;;16.10;8.90;;;;;;5066420;28;20599;-70
2021/07/22 04:13:29;;;;;;;11.25;7.40;;;16.00;10.20;;;;;;4999081;28;20051;-71
2021/07/22 04:16:35;;;;;;;11.00;8.05;;;16.10;8.50;;;;;;5078450;28;20186;-70
2021/07/22 04:19:33;;;;;;;11.02;7.45;;;16.00;10.10;;;;;;5076737;28;20052;-71
2021/07/22 04:22:31;;;;;;;10.75;7.40;;;16.10;10.10;;;;;;5049561;28;20062;-70
2021/07/22 04:25:40;;;;;;;10.85;6.88;;;16.20;10.00;;;;;;5077132;28;20055;-70
2021/07/22 04:28:39;;;;;;;10.65;7.53;;;16.20;8.90;;;;;;5067844;28;20127;-71
2021/07/22 04:31:28;;;;;;;9.38;7.70;;;16.10;9.50;;;;;;5072164;28;20048;-70
2021/07/22 04:34:36;;;;;;;10.98;7.57;;;16.20;9.20;;;;;;5082670;28;20060;-70
2021/07/22 04:37:32;;;;;;;9.77;7.35;;;16.50;8.50;;;;;;5067685;28;20055;-71
2021/07/22 04:40:38;;;;;;;11.40;7.18;;;17.40;2.90;;;;;;5078522;28;20157;-69
2021/07/22 04:43:40;;;;;;;10.52;7.50;;;17.10;3.50;;;;;;5082124;28;20175;-69
2021/07/22 04:46:57;;;;;;;9.95;6.82;;;17.10;2.60;;;;;;5078828;28;20054;-70
2021/07/22 04:49:59;;;;;;;10.40;7.15;;;16.70;4.30;;;;;;5078814;28;20072;-70
2021/07/22 04:53:00;;;;;;;12.35;7.30;;;16.60;5.10;;;;;;5071625;28;20063;-70
2021/07/22 04:55:55;;;;;;;9.45;6.50;;;17.50;2.70;;;;;;5062642;28;20592;-71
2021/07/22 04:58:46;;;;;;;13.55;7.78;;;17.10;3.70;;;;;;5067452;28;20518;-70
2021/07/22 05:01:44;;;;;;;9.60;6.60;;;17.40;2.40;;;;;;5080994;28;20678;-70
2021/07/22 05:04:33;;;;;;;14.77;7.13;;;18.50;1.00;;;;;;5082264;28;20129;-70
2021/07/22 05:07:22;;;;;;;8.82;6.40;;;19.70;1.00;;;;;;5066702;28;21663;-69
2021/07/22 05:10:17;;;;;;;16.75;7.38;;;19.60;1.00;;;;;;5079695;28;20044;-71
2021/07/22 05:13:26;;;;;;;12.18;7.18;;;19.60;1.00;;;;;;5067012;28;20169;-69
2021/07/22 05:16:39;;;;;;;9.35;6.90;;;19.50;1.00;;;;;;5075948;28;20062;-70
2021/07/22 05:19:59;;;;;;;10.15;7.18;;;20.20;1.00;;;;;;5075913;28;20131;-70
2021/07/22 05:23:19;;;;;;;12.07;7.22;;;18.60;1.00;;;;;;5070465;28;20075;-71
2021/07/22 05:26:18;;;;;;;11.07;7.32;;;17.90;1.00;;;;;;5064816;28;20048;-69
2021/07/22 05:29:24;;;;;;;13.35;7.80;;;17.60;1.00;;;;;;5067618;28;20067;-71
2021/07/22 05:32:37;;;;;;;10.77;7.00;;;17.40;1.00;;;;;;5079912;28;20094;-71
2021/07/22 05:35:45;;;;;;;12.20;7.03;;;17.30;1.50;;;;;;5076648;28;20048;-70
2021/07/22 05:38:49;;;;;;;11.38;7.35;;;17.90;1.00;;;;;;5069186;28;20074;-70
2021/07/22 05:41:38;;;;;;;11.30;7.28;;;17.90;1.00;;;;;;5079280;28;20055;-71
2021/07/22 05:44:27;;;;;;;10.68;7.47;;;18.40;1.00;;;;;;5082938;28;20510;-69
2021/07/22 05:47:16;;;;;;;9.68;7.68;;;18.80;1.00;;;;;;5082548;28;20040;-70
2021/07/22 05:50:08;;;;;;;12.82;7.88;;;19.10;1.00;;;;;;5080059;28;20048;-71
2021/07/22 05:52:58;;;;;;;14.75;9.80;;;20.00;1.00;;;;;;5065574;28;20048;-71
2021/07/22 05:55:47;;;;;;;9.68;7.35;;;20.00;1.00;;;;;;5075742;28;20136;-71
2021/07/22 05:58:35;;;;;;;11.27;6.95;;;19.50;1.00;;;;;;5084235;28;20152;-69
2021/07/22 06:01:23;;;;;;;11.10;7.55;;;19.90;1.00;;;;;;5081436;28;20123;-70
2021/07/22 06:04:12;;;;;;;10.60;6.97;;;19.90;1.00;;;;;;5079334;28;20086;-70
2021/07/22 06:07:04;;;;;;;12.07;7.88;;;19.90;1.00;;;;;;5074544;28;20048;-71
2021/07/22 06:09:52;;;;;;;11.18;7.82;;;19.20;1.00;;;;;;5080219;28;20147;-70
2021/07/22 06:12:41;;;;;;;14.88;7.85;;;19.20;1.00;;;;;;5082459;28;20044;-70
2021/07/22 06:15:48;;;;;;;14.50;7.18;;;19.60;1.00;;;;;;5079080;28;20048;-70
2021/07/22 06:18:36;;;;;;;12.10;6.78;;;19.10;1.00;;;;;;5078463;28;20510;-70
2021/07/22 06:21:25;;;;;;;13.00;6.72;;;19.00;1.00;;;;;;5082515;28;20044;-70
2021/07/22 06:24:15;;;;;;;9.38;6.78;;;19.90;1.00;;;;;;5079654;28;20052;-71
2021/07/22 06:27:04;;;;;;;11.60;7.30;;;19.60;1.00;;;;;;5065715;28;20044;-71
2021/07/22 06:29:53;;;;;;;10.55;7.18;;;19.70;1.00;;;;;;5056403;28;20044;-70
2021/07/22 06:32:41;;;;;;;9.65;7.97;;;19.70;1.00;;;;;;5076895;28;20048;-70
2021/07/22 06:35:31;;;;;;;10.13;6.80;;;19.60;1.00;;;;;;5079954;28;20503;-71
2021/07/22 06:38:20;;;;;;;9.50;6.70;;;20.10;1.00;;;;;;5079465;28;20055;-70
2021/07/22 06:41:12;;;;;;;13.90;7.75;;;20.50;1.00;;;;;;5083789;28;20046;-70
2021/07/22 06:44:00;;;;;;;8.55;6.80;;;20.80;1.00;;;;;;5071028;28;20086;-70
2021/07/22 06:46:49;;;;;;;14.60;7.25;;;20.70;1.00;;;;;;5066182;28;20160;-69
2021/07/22 06:49:37;;;;;;;11.35;7.25;;;21.10;1.00;;;;;;5077858;28;20071;-70
2021/07/22 06:52:26;;;;;;;9.18;6.90;;;20.70;1.00;;;;;;5078567;28;20507;-69
2021/07/22 06:55:14;;;;;;;14.10;7.25;;;20.40;1.00;;;;;;5066115;28;20063;-70
2021/07/22 06:58:08;;;;;;;11.98;7.13;;;20.30;1.00;;;;;;5076907;28;20140;-70
2021/07/22 07:00:57;;;;;;;11.02;7.20;;;20.50;1.00;;;;;;5060997;28;20112;-70
2021/07/22 07:03:46;;;;;;;11.00;7.63;;;20.30;1.00;;;;;;5077212;28;20044;-70
2021/07/22 07:06:34;;;;;;;10.32;6.65;;;20.20;1.00;;;;;;5076979;28;20044;-70
2021/07/22 07:09:23;;;;;;;11.38;6.75;;;20.60;1.00;;;;;;5074793;28;20048;-69
2021/07/22 07:12:12;;;;;;;14.77;8.02;;;20.40;1.00;;;;;;5063919;28;20115;-70
2021/07/22 07:15:03;;;;;;;11.50;7.25;;;20.80;1.00;;;;;;5063497;28;20553;-70
2021/07/22 07:17:53;;;;;;;11.32;7.63;;;20.80;1.00;;;;;;5066748;28;20056;-70
2021/07/22 07:20:42;;;;;;;9.13;6.55;;;20.60;1.00;;;;;;5079989;28;20089;-70
2021/07/22 07:23:30;;;;;;;14.43;6.90;;;21.10;1.00;;;;;;5073930;28;20077;-68
2021/07/22 07:26:19;;;;;;;8.45;6.70;;;20.50;1.00;;;;;;5070251;28;20571;-69
2021/07/22 07:29:07;;;;;;;10.02;7.18;;;21.00;1.00;;;;;;5060865;28;20059;-69
2021/07/22 07:32:00;;;;;;;10.90;6.97;;;20.90;1.00;;;;;;5076873;28;20180;-70
2021/07/22 07:34:48;;;;;;;10.52;7.53;;;20.80;1.00;;;;;;5074171;28;20069;-69
2021/07/22 07:37:37;;;;;;;11.13;7.07;;;21.00;1.00;;;;;;5066513;28;20048;-69
2021/07/22 07:40:26;;;;;;;11.20;7.00;;;21.30;1.00;;;;;;5078711;28;20036;-70
2021/07/22 07:43:15;;;;;;;8.48;6.85;;;21.90;1.00;;;;;;5078038;28;20540;-70
2021/07/22 07:46:03;;;;;;;9.90;6.78;;;21.80;1.00;;;;;;5075964;28;20044;-69
2021/07/22 07:48:53;;;;;;;9.65;6.57;;;21.50;1.00;;;;;;5077449;28;20192;-70
2021/07/22 07:51:41;;;;;;;9.18;6.80;;;22.00;1.00;;;;;;5079518;28;20514;-69
2021/07/22 07:54:30;;;;;;;15.02;6.45;;;21.90;1.00;;;;;;5075957;28;20117;-69
2021/07/22 07:57:18;;;;;;;9.52;7.20;;;21.80;1.00;;;;;;5081129;28;20135;-69
2021/07/22 08:00:08;;;;;;;10.38;6.40;;;21.80;1.00;;;;;;5079242;28;20059;-69
2021/07/22 08:02:59;;;;;;;12.93;6.30;;;21.80;1.00;;;;;;5077902;28;20177;-70
2021/07/22 08:05:50;;;;;;;8.07;6.43;;;22.20;1.00;;;;;;5075134;28;20152;-71
2021/07/22 08:08:40;;;;;;;12.35;7.40;;;22.10;1.00;;;;;;5078612;28;20120;-70
2021/07/22 08:11:28;;;;;;;11.98;6.93;;;22.20;1.00;;;;;;5081075;28;20044;-71
2021/07/22 08:14:17;;;;;;;9.38;6.85;;;22.00;1.00;;;;;;5078104;28;20387;-69
2021/07/22 08:17:06;;;;;;;10.00;7.00;;;21.90;1.00;;;;;;5075304;28;20181;-70
2021/07/22 08:20:00;;;;;;;9.60;7.20;;;21.80;1.00;;;;;;5064279;28;20507;-70
2021/07/22 08:22:49;;;;;;;12.65;7.35;;;22.10;1.00;;;;;;5078872;28;20511;-70
2021/07/22 08:25:38;;;;;;;8.43;6.25;;;21.90;1.00;;;;;;5075940;28;21143;-69
2021/07/22 08:28:27;;;;;;;9.07;6.22;;;22.60;1.00;;;;;;5076871;28;20624;-69
2021/07/22 08:31:16;;;;;;;11.02;6.97;;;22.70;1.00;;;;;;5076209;28;20045;-69
2021/07/22 08:34:05;;;;;;;12.00;6.65;;;22.60;1.00;;;;;;5074574;28;20117;-71
2021/07/22 08:36:53;;;;;;;14.35;7.13;;;22.60;1.00;;;;;;5080014;28;20044;-70
2021/07/22 08:39:44;;;;;;;8.88;6.38;;;22.80;1.00;;;;;;5081501;28;20054;-71
2021/07/22 08:42:36;;;;;;;10.13;6.90;;;22.80;1.00;;;;;;5071378;28;20045;-70
2021/07/22 08:45:24;;;;;;;9.77;6.72;;;23.10;1.00;;;;;;5075551;28;20052;-69
2021/07/22 08:48:13;;;;;;;8.55;6.18;;;23.10;1.00;;;;;;5082404;28;20571;-69
2021/07/22 08:51:03;;;;;;;12.25;6.97;;;23.00;1.00;;;;;;5079362;28;20078;-70
2021/07/22 08:53:55;;;;;;;12.32;6.50;;;23.20;1.00;;;;;;5074011;28;20074;-69
2021/07/22 08:56:46;;;;;;;7.25;5.68;;;22.70;1.00;;;;;;5074814;28;20519;-71
2021/07/22 08:59:34;;;;;;;11.02;6.40;;;23.10;1.00;;;;;;5060468;28;20062;-69
2021/07/22 09:02:24;;;;;;;12.32;7.05;;;23.10;1.00;;;;;;5081762;28;20105;-69
2021/07/22 09:05:14;;;;;;;12.93;6.10;;;22.70;1.00;;;;;;5073643;28;20123;-70
2021/07/22 09:08:03;;;;;;;10.68;6.30;;;23.40;1.00;;;;;;5075647;28;20273;-70
2021/07/22 09:11:06;;;;;;;12.57;6.10;;;24.10;1.00;;;;;;5076457;28;20127;-70
2021/07/22 09:14:10;;;;;;;9.43;6.10;;;24.20;1.00;;;;;;5076366;28;20056;-70
2021/07/22 09:16:59;;;;;;;9.85;5.97;;;24.10;1.00;;;;;;5078759;28;20075;-70
2021/07/22 09:19:47;;;;;;;8.70;5.78;;;24.20;1.00;;;;;;5080674;28;20131;-70
2021/07/22 09:22:39;;;;;;;10.20;5.78;;;24.00;1.00;;;;;;5076078;28;20048;-70
2021/07/22 09:25:39;;;;;;;11.43;5.43;;;24.30;1.00;;;;;;5079820;28;20082;-71
2021/07/22 09:28:28;;;;;;;12.18;6.00;;;24.20;1.00;;;;;;5080978;28;20427;-69
2021/07/22 09:31:18;;;;;;;13.65;5.57;;;24.10;1.00;;;;;;5085020;28;20392;-70
2021/07/22 09:34:15;;;;;;;11.40;5.55;;;24.10;1.00;;;;;;5080562;28;20036;-69
2021/07/22 09:37:09;;;;;;;7.82;5.72;;;24.50;1.00;;;;;;5077221;28;20052;-69
2021/07/22 09:39:57;;;;;;;11.25;5.38;;;24.50;1.00;;;;;;5081547;28;20052;-70
2021/07/22 09:42:47;;;;;;;11.57;5.50;;;24.30;1.00;;;;;;5068184;28;20054;-70
2021/07/22 09:45:38;;;;;;;9.25;5.10;;;24.60;1.00;;;;;;5080371;28;20528;-69
2021/07/22 09:48:28;;;;;;;11.55;5.20;;;24.30;1.00;;;;;;5071331;28;20052;-69
2021/07/22 09:51:32;;;;;;;9.45;5.72;;;24.70;1.00;;;;;;5080741;28;20128;-70
2021/07/22 09:54:21;;;;;;;8.05;5.68;;;25.00;1.00;;;;;;5079404;28;20491;-70
2021/07/22 09:57:16;;;;;;;9.93;6.18;;;25.00;1.00;;;;;;5083236;28;20055;-70
2021/07/22 10:00:07;;;;;;;12.48;5.85;;;24.70;1.00;;;;;;5066665;28;20123;-69
2021/07/22 10:02:57;;;;;;;8.32;5.55;;;24.70;1.00;;;;;;5062371;28;20042;-69
2021/07/22 10:05:51;;;;;;;9.57;6.13;;;24.60;1.00;;;;;;5076956;28;20410;-70
2021/07/22 10:08:41;;;;;;;8.63;5.55;;;24.60;1.00;;;;;;5081232;28;20044;-69
2021/07/22 10:11:29;;;;;;;11.23;5.47;;;24.80;1.00;;;;;;5083320;28;20139;-68
2021/07/22 10:14:19;;;;;;;8.45;5.43;;;25.00;1.00;;;;;;5074282;28;20051;-70
2021/07/22 10:17:09;;;;;;;10.07;6.18;;;25.20;1.00;;;;;;5071276;28;20051;-69
2021/07/22 10:19:58;;;;;;;9.05;5.63;;;25.30;1.00;;;;;;5075293;28;20130;-69
2021/07/22 10:22:48;;;;;;;10.98;5.40;;;25.70;1.00;;;;;;5060720;28;20126;-69
2021/07/22 10:25:37;;;;;;;9.32;5.93;;;25.50;1.00;;;;;;5073228;28;20186;-72
2021/07/22 10:28:26;;;;;;;8.02;5.43;;;25.10;1.00;;;;;;5076427;28;20075;-70
2021/07/22 10:31:22;;;;;;;7.60;4.93;;;25.70;1.00;;;;;;5071079;28;20052;-69
2021/07/22 10:34:12;;;;;;;10.57;5.93;;;25.40;1.00;;;;;;5073141;28;20546;-69
2021/07/22 10:37:04;;;;;;;9.23;6.00;;;25.50;1.00;;;;;;5070930;28;20074;-68
2021/07/22 10:40:04;;;;;;;12.65;6.13;;;25.10;1.00;;;;;;5077767;28;20056;-71
2021/07/22 10:42:53;;;;;;;9.88;6.10;;;25.00;1.00;;;;;;5074684;28;20052;-69
2021/07/22 10:45:52;;;;;;;9.55;5.55;;;25.00;1.00;;;;;;5067397;28;20515;-69
2021/07/22 10:48:42;;;;;;;7.95;5.35;;;25.50;1.00;;;;;;5057762;28;20040;-69
2021/07/22 10:51:38;;;;;;;13.38;6.50;;;25.50;1.00;;;;;;5077042;28;20055;-69
2021/07/22 10:54:48;;;;;;;10.23;6.03;;;25.40;1.00;;;;;;5076951;28;20054;-69
2021/07/22 10:57:39;;;;;;;18.92;6.55;;;25.90;1.00;;;;;;5068795;28;20076;-69
2021/07/22 11:00:42;;;;;;;8.43;5.40;;;25.50;1.00;;;;;;5067337;28;20500;-69
2021/07/22 11:03:55;;;;;;;9.88;5.65;;;25.70;1.00;;;;;;5069737;28;20137;-69
2021/07/22 11:07:01;;;;;;;11.93;5.97;;;25.70;1.00;;;;;;5071982;28;20052;-71
2021/07/22 11:09:51;;;;;;;7.20;5.55;;;26.20;1.00;;;;;;5073646;28;20050;-72
2021/07/22 11:12:49;;;;;;;7.28;5.85;;;26.20;1.00;;;;;;5075186;28;20048;-70
2021/07/22 11:16:02;;;;;;;9.20;5.65;;;26.20;1.00;;;;;;5071008;28;20078;-69
2021/07/22 11:18:53;;;;;;;10.57;6.10;;;25.90;1.00;;;;;;5073824;28;20048;-69
2021/07/22 11:21:50;;;;;;;11.27;6.22;;;26.10;1.00;;;;;;5072016;28;20083;-70
2021/07/22 11:24:38;;;;;;;9.90;5.97;;;25.90;1.00;;;;;;5071045;28;20036;-69
2021/07/22 11:27:27;;;;;;;8.40;5.78;;;26.10;1.00;;;;;;5074804;28;20051;-69
2021/07/22 11:30:19;;;;;;;10.05;6.25;;;26.40;1.00;;;;;;5072881;28;20048;-69
2021/07/22 11:33:17;;;;;;;9.40;5.43;;;26.00;1.00;;;;;;5071860;28;20256;-69
2021/07/22 11:36:07;;;;;;;9.73;5.85;;;26.30;1.00;;;;;;5072402;28;20048;-70
2021/07/22 11:38:56;;;;;;;16.17;5.60;;;26.50;1.00;;;;;;5074364;28;20056;-69
2021/07/22 11:42:02;;;;;;;8.30;5.60;;;26.90;1.00;;;;;;5077721;28;20177;-69
2021/07/22 11:45:02;;;;;;;11.15;6.30;;;26.20;1.00;;;;;;5073632;28;20044;-70
2021/07/22 11:47:53;;;;;;;9.88;5.65;;;26.60;1.00;;;;;;5069277;28;20468;-69
2021/07/22 11:50:41;;;;;;;9.30;5.50;;;26.60;1.00;;;;;;5070015;28;20055;-68
2021/07/22 11:53:30;;;;;;;8.43;6.22;;;26.60;1.00;;;;;;5076053;28;20040;-70
2021/07/22 11:56:20;;;;;;;6.70;5.60;;;26.20;1.00;;;;;;5074824;28;20051;-69
2021/07/22 11:59:10;;;;;;;11.52;6.10;;;26.40;1.00;;;;;;5074452;28;20093;-70
2021/07/22 12:02:00;;;;;;;10.95;5.95;;;26.60;1.00;;;;;;5068440;28;20051;-70
2021/07/22 12:04:51;;;;;;;10.38;6.38;;;26.40;1.00;;;;;;5070281;28;20044;-70
2021/07/22 12:07:40;;;;;;;10.18;5.63;;;26.60;1.00;;;;;;5076032;28;21442;-69
2021/07/22 12:10:30;;;;;;;9.48;6.30;;;27.00;1.00;;;;;;5076630;28;20052;-70
2021/07/22 12:13:19;;;;;;;7.72;5.40;;;27.10;1.00;;;;;;5070817;28;20059;-70
2021/07/22 12:16:08;;;;;;;8.27;5.38;;;26.40;1.00;;;;;;5069909;28;20063;-69
2021/07/22 12:18:56;;;;;;;9.25;5.72;;;27.00;1.00;;;;;;5077071;28;20558;-69
2021/07/22 12:21:46;;;;;;;8.32;6.13;;;26.80;1.00;;;;;;5076213;28;20067;-70
2021/07/22 12:24:38;;;;;;;7.32;5.82;;;26.70;1.00;;;;;;5073086;28;20048;-69
2021/07/22 12:27:34;;;;;;;7.63;5.55;;;26.50;1.00;;;;;;5070948;28;20431;-68
2021/07/22 12:30:24;;;;;;;8.25;5.47;;;26.50;1.00;;;;;;5068852;28;20362;-69
2021/07/22 12:33:23;;;;;;;9.55;6.30;;;26.10;1.00;;;;;;5070918;28;20044;-70
2021/07/22 12:36:21;;;;;;;10.32;5.60;;;27.00;1.00;;;;;;5071843;28;20429;-69
2021/07/22 12:39:25;;;;;;;10.93;6.05;;;26.80;1.00;;;;;;5074613;28;20051;-70
2021/07/22 12:42:15;;;;;;;7.07;6.10;;;26.80;1.00;;;;;;5053989;28;20133;-69
2021/07/22 12:45:14;;;;;;;7.55;6.22;;;26.60;1.00;;;;;;5069300;28;20052;-73
2021/07/22 12:48:03;;;;;;;8.63;6.40;;;26.40;1.00;;;;;;5074783;28;21029;-72
2021/07/22 12:50:51;;;;;;;6.47;5.38;;;26.30;1.00;;;;;;5076452;28;20178;-73
2021/07/22 12:53:41;;;;;;;8.02;6.03;;;26.50;1.00;;;;;;5078628;28;20054;-72
2021/07/22 12:56:43;;;;;;;10.57;5.50;;;26.40;1.00;;;;;;5071535;28;20135;-73
2021/07/22 12:59:31;;;;;;;12.75;6.57;;;26.80;1.00;;;;;;5076651;28;20213;-72
2021/07/22 13:02:27;;;;;;;8.88;6.25;;;26.80;1.00;;;;;;5075576;28;20056;-71
2021/07/22 13:05:15;;;;;;;9.85;6.22;;;26.90;1.00;;;;;;5079903;28;20127;-75
2021/07/22 13:08:13;;;;;;;7.28;5.75;;;26.90;1.00;;;;;;5081765;28;20527;-75
2021/07/22 13:11:10;;;;;;;10.13;6.10;;;26.80;1.00;;;;;;5081950;28;20523;-76
2021/07/22 13:14:00;;;;;;;6.38;5.50;;;27.40;1.00;;;;;;5079345;28;20055;-73
2021/07/22 13:16:49;;;;;;;9.32;6.15;;;27.20;1.00;;;;;;5063871;28;20169;-74
2021/07/22 13:19:37;;;;;;;7.70;5.57;;;27.10;1.00;;;;;;5083978;28;20051;-75
2021/07/22 13:22:26;;;;;;;9.65;6.25;;;27.00;1.00;;;;;;5083613;28;20306;-75
2021/07/22 13:25:14;;;;;;;11.27;6.20;;;27.30;1.00;;;;;;5074480;28;20231;-75
2021/07/22 13:28:03;;;;;;;11.02;7.00;;;27.40;1.00;;;;;;5082453;28;20055;-76
2021/07/22 13:30:53;;;;;;;14.82;6.22;;;26.80;1.00;;;;;;5081272;28;20041;-76
2021/07/22 13:33:43;;;;;;;9.77;6.43;;;27.00;1.00;;;;;;5082163;28;20073;-77
2021/07/22 13:36:31;;;;;;;9.63;6.43;;;27.50;1.00;;;;;;5078487;28;20056;-76
2021/07/22 13:39:19;;;;;;;7.93;5.88;;;27.30;1.00;;;;;;5080998;28;20055;-77
2021/07/22 13:42:08;;;;;;;10.43;6.55;;;27.30;1.00;;;;;;5080003;28;20048;-75
2021/07/22 13:44:57;;;;;;;7.30;5.78;;;27.10;1.00;;;;;;5082442;28;20051;-76
2021/07/22 13:47:46;;;;;;;8.20;6.20;;;26.90;1.00;;;;;;5081400;28;21278;-76
2021/07/22 13:50:35;;;;;;;8.45;6.32;;;26.70;1.00;;;;;;5066306;28;20444;-76
2021/07/22 13:53:23;;;;;;;8.75;6.03;;;27.50;1.00;;;;;;5075007;28;20115;-76
2021/07/22 13:56:11;;;;;;;9.25;6.25;;;27.80;1.00;;;;;;5077639;28;20041;-76
2021/07/22 13:59:00;;;;;;;8.52;6.70;;;27.40;1.00;;;;;;5082192;28;20048;-76
2021/07/22 14:01:48;;;;;;;10.65;6.00;;;27.60;1.00;;;;;;5081403;28;20719;-74
2021/07/22 14:04:38;;;;;;;8.73;5.97;;;27.30;1.00;;;;;;5073920;28;20048;-76
2021/07/22 14:07:26;;;;;;;10.93;5.82;;;27.10;1.00;;;;;;5078837;28;20162;-75
2021/07/22 14:10:14;;;;;;;9.23;6.47;;;27.40;1.00;;;;;;5071306;28;20067;-74
2021/07/22 14:13:03;;;;;;;10.35;6.43;;;27.60;1.00;;;;;;5075742;28;20070;-74
2021/07/22 14:15:51;;;;;;;8.10;5.78;;;27.30;1.00;;;;;;5078487;28;20059;-75
2021/07/22 14:18:40;;;;;;;9.25;6.15;;;27.60;1.00;;;;;;5077824;28;20182;-73
2021/07/22 14:21:29;;;;;;;8.85;6.07;;;27.60;1.00;;;;;;5083092;28;20738;-73
2021/07/22 14:24:18;;;;;;;7.80;6.60;;;27.60;1.00;;;;;;5078728;28;20048;-72
2021/07/22 14:27:07;;;;;;;9.98;5.53;;;27.40;1.00;;;;;;5077484;28;20125;-72
2021/07/22 14:29:55;;;;;;;9.60;5.97;;;27.70;1.00;;;;;;5076060;28;20139;-74
2021/07/22 14:32:44;;;;;;;8.27;5.90;;;27.40;1.00;;;;;;5082109;28;20131;-73
2021/07/22 14:35:32;;;;;;;10.13;6.25;;;27.40;1.00;;;;;;5079976;28;20495;-73
2021/07/22 14:38:22;;;;;;;11.13;6.55;;;27.30;1.00;;;;;;5076628;28;20060;-73
2021/07/22 14:41:10;;;;;;;10.98;6.10;;;27.50;1.00;;;;;;5077475;28;20052;-73
2021/07/22 14:43:59;;;;;;;7.18;6.13;;;27.50;1.00;;;;;;5080892;28;20052;-73
2021/07/22 14:46:47;;;;;;;9.13;6.03;;;27.30;1.00;;;;;;5083518;28;20184;-73
2021/07/22 14:49:39;;;;;;;6.85;5.75;;;27.60;1.00;;;;;;5082397;28;20140;-73
2021/07/22 14:52:28;;;;;;;8.93;6.32;;;27.20;1.00;;;;;;5074718;28;20056;-72
2021/07/22 14:55:17;;;;;;;12.25;6.28;;;27.30;1.00;;;;;;5075438;28;20093;-74
2021/07/22 14:58:06;;;;;;;7.60;5.65;;;27.40;1.00;;;;;;5064841;28;20055;-73
2021/07/22 15:00:54;;;;;;;9.15;6.38;;;27.40;1.00;;;;;;5076479;28;20048;-73